sensor_id;sensor_type;location;lat;lon;timestamp;P1;durP1;ratioP1;P2;durP2;ratioP2
83814;SDS011;73829;53.826;-3.034;2024-02-21T00:02:24;7.50;;;1.70;;
83814;SDS011;73829;53.826;-3.034;2024-02-21T00:04:55;5.50;;;1.30;;
83814;SDS011;73829;53.826;-3.034;2024-02-21T00:09:56;6.00;;;1.40;;
83814;SDS011;73829;53.826;-3.034;2024-02-21T00:12:27;5.30;;;1.10;;
83814;SDS011;73829;53.826;-3.034;2024-02-21T00:14:58;4.30;;;1.30;;
83814;SDS011;73829;53.826;-3.034;2024-02-21T00:17:29;5.10;;;1.20;;
83814;SDS011;73829;53.826;-3.034;2024-02-21T00:20:00;6.80;;;1.20;;
83814;SDS011;73829;53.826;-3.034;2024-02-21T00:22:31;7.60;;;1.50;;
83814;SDS011;73829;53.826;-3.034;2024-02-21T00:27:31;7.30;;;1.60;;
83814;SDS011;73829;53.826;-3.034;2024-02-21T00:32:31;4.50;;;1.00;;
83814;SDS011;73829;53.826;-3.034;2024-02-21T00:35:02;5.60;;;1.20;;
83814;SDS011;73829;53.826;-3.034;2024-02-21T00:37:34;5.10;;;1.10;;
83814;SDS011;73829;53.826;-3.034;2024-02-21T00:42:35;5.00;;;1.20;;
83814;SDS011;73829;53.826;-3.034;2024-02-21T00:45:07;6.20;;;1.00;;
83814;SDS011;73829;53.826;-3.034;2024-02-21T00:47:38;7.40;;;1.60;;
83814;SDS011;73829;53.826;-3.034;2024-02-21T00:50:10;3.90;;;0.90;;
83814;SDS011;73829;53.826;-3.034;2024-02-21T00:52:41;4.50;;;1.00;;
83814;SDS011;73829;53.826;-3.034;2024-02-21T00:55:13;5.00;;;1.40;;
83814;SDS011;73829;53.826;-3.034;2024-02-21T00:57:44;5.20;;;1.30;;
83814;SDS011;73829;53.826;-3.034;2024-02-21T01:02:45;3.60;;;0.90;;
83814;SDS011;73829;53.826;-3.034;2024-02-21T01:05:16;4.30;;;1.10;;
83814;SDS011;73829;53.826;-3.034;2024-02-21T01:07:47;3.10;;;0.90;;
83814;SDS011;73829;53.826;-3.034;2024-02-21T01:10:18;4.10;;;1.00;;
83814;SDS011;73829;53.826;-3.034;2024-02-21T01:12:49;4.50;;;1.20;;
83814;SDS011;73829;53.826;-3.034;2024-02-21T01:15:20;3.80;;;1.00;;
83814;SDS011;73829;53.826;-3.034;2024-02-21T01:17:51;4.10;;;0.80;;
83814;SDS011;73829;53.826;-3.034;2024-02-21T01:20:22;3.20;;;1.10;;
83814;SDS011;73829;53.826;-3.034;2024-02-21T01:22:53;6.80;;;1.60;;
83814;SDS011;73829;53.826;-3.034;2024-02-21T01:27:53;4.00;;;0.90;;
83814;SDS011;73829;53.826;-3.034;2024-02-21T01:32:54;4.50;;;1.00;;
83814;SDS011;73829;53.826;-3.034;2024-02-21T01:35:25;4.80;;;1.00;;
83814;SDS011;73829;53.826;-3.034;2024-02-21T01:40:25;3.30;;;1.00;;
83814;SDS011;73829;53.826;-3.034;2024-02-21T01:45:25;2.70;;;0.80;;
83814;SDS011;73829;53.826;-3.034;2024-02-21T01:47:56;2.90;;;0.80;;
83814;SDS011;73829;53.826;-3.034;2024-02-21T01:50:27;3.70;;;0.90;;
83814;SDS011;73829;53.826;-3.034;2024-02-21T01:52:58;4.40;;;1.20;;
83814;SDS011;73829;53.826;-3.034;2024-02-21T01:55:30;4.10;;;0.90;;
83814;SDS011;73829;53.826;-3.034;2024-02-21T01:58:02;3.70;;;0.90;;
83814;SDS011;73829;53.826;-3.034;2024-02-21T02:00:33;4.90;;;1.30;;
83814;SDS011;73829;53.826;-3.034;2024-02-21T02:03:06;3.40;;;1.00;;
83814;SDS011;73829;53.826;-3.034;2024-02-21T02:05:45;4.10;;;0.80;;
83814;SDS011;73829;53.826;-3.034;2024-02-21T02:08:18;4.00;;;1.30;;
83814;SDS011;73829;53.826;-3.034;2024-02-21T02:10:50;3.70;;;1.10;;
83814;SDS011;73829;53.826;-3.034;2024-02-21T02:13:21;4.40;;;1.00;;
83814;SDS011;73829;53.826;-3.034;2024-02-21T02:18:22;4.40;;;1.00;;
83814;SDS011;73829;53.826;-3.034;2024-02-21T02:20:53;3.80;;;1.00;;
83814;SDS011;73829;53.826;-3.034;2024-02-21T02:23:25;4.10;;;1.00;;
83814;SDS011;73829;53.826;-3.034;2024-02-21T02:25:56;4.10;;;1.20;;
83814;SDS011;73829;53.826;-3.034;2024-02-21T02:28:28;3.90;;;1.00;;
83814;SDS011;73829;53.826;-3.034;2024-02-21T02:30:59;2.90;;;1.10;;
83814;SDS011;73829;53.826;-3.034;2024-02-21T02:33:30;4.10;;;1.10;;
83814;SDS011;73829;53.826;-3.034;2024-02-21T02:38:30;3.60;;;1.10;;
83814;SDS011;73829;53.826;-3.034;2024-02-21T02:43:30;3.80;;;1.10;;
83814;SDS011;73829;53.826;-3.034;2024-02-21T02:46:01;4.10;;;1.10;;
83814;SDS011;73829;53.826;-3.034;2024-02-21T02:48:32;6.60;;;1.30;;
83814;SDS011;73829;53.826;-3.034;2024-02-21T02:53:33;3.00;;;0.90;;
83814;SDS011;73829;53.826;-3.034;2024-02-21T02:58:33;4.40;;;0.90;;
83814;SDS011;73829;53.826;-3.034;2024-02-21T03:03:35;3.00;;;0.90;;
83814;SDS011;73829;53.826;-3.034;2024-02-21T03:08:35;3.00;;;1.00;;
83814;SDS011;73829;53.826;-3.034;2024-02-21T03:11:07;4.10;;;1.40;;
83814;SDS011;73829;53.826;-3.034;2024-02-21T03:13:38;3.00;;;1.00;;
83814;SDS011;73829;53.826;-3.034;2024-02-21T03:16:09;3.70;;;0.80;;
83814;SDS011;73829;53.826;-3.034;2024-02-21T03:21:11;3.20;;;1.00;;
83814;SDS011;73829;53.826;-3.034;2024-02-21T03:23:42;2.60;;;0.90;;
83814;SDS011;73829;53.826;-3.034;2024-02-21T03:26:12;2.60;;;0.80;;
83814;SDS011;73829;53.826;-3.034;2024-02-21T03:28:45;2.90;;;0.80;;
83814;SDS011;73829;53.826;-3.034;2024-02-21T03:31:16;3.00;;;1.00;;
83814;SDS011;73829;53.826;-3.034;2024-02-21T03:33:47;3.30;;;0.90;;
83814;SDS011;73829;53.826;-3.034;2024-02-21T03:36:18;2.30;;;0.70;;
83814;SDS011;73829;53.826;-3.034;2024-02-21T03:38:49;2.60;;;0.80;;
83814;SDS011;73829;53.826;-3.034;2024-02-21T03:41:20;1.70;;;0.50;;
83814;SDS011;73829;53.826;-3.034;2024-02-21T03:43:51;2.50;;;0.80;;
83814;SDS011;73829;53.826;-3.034;2024-02-21T03:46:23;2.50;;;0.80;;
83814;SDS011;73829;53.826;-3.034;2024-02-21T03:48:54;2.80;;;1.00;;
83814;SDS011;73829;53.826;-3.034;2024-02-21T03:51:25;2.30;;;0.70;;
83814;SDS011;73829;53.826;-3.034;2024-02-21T03:53:57;2.20;;;0.70;;
83814;SDS011;73829;53.826;-3.034;2024-02-21T03:56:28;2.50;;;0.70;;
83814;SDS011;73829;53.826;-3.034;2024-02-21T03:58:59;2.60;;;0.80;;
83814;SDS011;73829;53.826;-3.034;2024-02-21T04:01:30;3.40;;;0.90;;
83814;SDS011;73829;53.826;-3.034;2024-02-21T04:04:01;2.50;;;0.70;;
83814;SDS011;73829;53.826;-3.034;2024-02-21T04:06:32;2.40;;;0.80;;
83814;SDS011;73829;53.826;-3.034;2024-02-21T04:09:03;1.90;;;0.60;;
83814;SDS011;73829;53.826;-3.034;2024-02-21T04:11:34;2.40;;;0.70;;
83814;SDS011;73829;53.826;-3.034;2024-02-21T04:14:05;2.50;;;0.60;;
83814;SDS011;73829;53.826;-3.034;2024-02-21T04:16:36;3.00;;;0.90;;
83814;SDS011;73829;53.826;-3.034;2024-02-21T04:19:07;2.10;;;0.80;;
83814;SDS011;73829;53.826;-3.034;2024-02-21T04:21:38;2.30;;;0.90;;
83814;SDS011;73829;53.826;-3.034;2024-02-21T04:24:10;2.90;;;0.90;;
83814;SDS011;73829;53.826;-3.034;2024-02-21T04:26:41;2.70;;;0.80;;
83814;SDS011;73829;53.826;-3.034;2024-02-21T04:29:12;2.40;;;0.80;;
83814;SDS011;73829;53.826;-3.034;2024-02-21T04:31:43;2.60;;;0.80;;
83814;SDS011;73829;53.826;-3.034;2024-02-21T04:34:15;2.30;;;0.90;;
83814;SDS011;73829;53.826;-3.034;2024-02-21T04:36:46;2.50;;;0.80;;
83814;SDS011;73829;53.826;-3.034;2024-02-21T04:39:17;2.50;;;0.80;;
83814;SDS011;73829;53.826;-3.034;2024-02-21T04:41:48;2.20;;;0.60;;
83814;SDS011;73829;53.826;-3.034;2024-02-21T04:44:19;1.50;;;0.50;;
83814;SDS011;73829;53.826;-3.034;2024-02-21T04:46:50;2.20;;;0.80;;
83814;SDS011;73829;53.826;-3.034;2024-02-21T04:49:21;1.90;;;0.60;;
83814;SDS011;73829;53.826;-3.034;2024-02-21T04:51:52;2.40;;;0.80;;
83814;SDS011;73829;53.826;-3.034;2024-02-21T04:54:23;2.60;;;0.60;;
83814;SDS011;73829;53.826;-3.034;2024-02-21T04:56:54;2.90;;;0.70;;
83814;SDS011;73829;53.826;-3.034;2024-02-21T04:59:25;2.40;;;0.90;;
83814;SDS011;73829;53.826;-3.034;2024-02-21T05:01:57;2.20;;;0.60;;
83814;SDS011;73829;53.826;-3.034;2024-02-21T05:04:28;2.00;;;0.60;;
83814;SDS011;73829;53.826;-3.034;2024-02-21T05:09:30;2.50;;;0.90;;
83814;SDS011;73829;53.826;-3.034;2024-02-21T05:12:01;2.10;;;0.70;;
83814;SDS011;73829;53.826;-3.034;2024-02-21T05:14:33;2.20;;;0.70;;
83814;SDS011;73829;53.826;-3.034;2024-02-21T05:17:04;2.40;;;0.70;;
83814;SDS011;73829;53.826;-3.034;2024-02-21T05:19:35;2.10;;;0.70;;
83814;SDS011;73829;53.826;-3.034;2024-02-21T05:22:06;2.10;;;0.70;;
83814;SDS011;73829;53.826;-3.034;2024-02-21T05:24:38;2.00;;;0.70;;
83814;SDS011;73829;53.826;-3.034;2024-02-21T05:27:09;2.30;;;0.60;;
83814;SDS011;73829;53.826;-3.034;2024-02-21T05:29:40;1.60;;;0.60;;
83814;SDS011;73829;53.826;-3.034;2024-02-21T05:32:12;2.20;;;0.80;;
83814;SDS011;73829;53.826;-3.034;2024-02-21T05:34:44;2.60;;;0.80;;
83814;SDS011;73829;53.826;-3.034;2024-02-21T05:37:17;2.00;;;0.60;;
83814;SDS011;73829;53.826;-3.034;2024-02-21T05:39:48;2.50;;;1.00;;
83814;SDS011;73829;53.826;-3.034;2024-02-21T05:42:19;2.20;;;0.80;;
83814;SDS011;73829;53.826;-3.034;2024-02-21T05:44:50;2.50;;;0.70;;
83814;SDS011;73829;53.826;-3.034;2024-02-21T05:47:21;2.20;;;0.70;;
83814;SDS011;73829;53.826;-3.034;2024-02-21T05:49:52;3.40;;;0.80;;
83814;SDS011;73829;53.826;-3.034;2024-02-21T05:52:23;1.90;;;0.70;;
83814;SDS011;73829;53.826;-3.034;2024-02-21T05:54:54;1.90;;;0.70;;
83814;SDS011;73829;53.826;-3.034;2024-02-21T05:57:25;1.80;;;0.70;;
83814;SDS011;73829;53.826;-3.034;2024-02-21T05:59:56;2.60;;;0.70;;
83814;SDS011;73829;53.826;-3.034;2024-02-21T06:02:28;2.10;;;0.70;;
83814;SDS011;73829;53.826;-3.034;2024-02-21T06:04:59;2.60;;;0.70;;
83814;SDS011;73829;53.826;-3.034;2024-02-21T06:07:30;2.20;;;0.80;;
83814;SDS011;73829;53.826;-3.034;2024-02-21T06:10:01;1.90;;;0.70;;
83814;SDS011;73829;53.826;-3.034;2024-02-21T06:12:33;1.90;;;0.60;;
83814;SDS011;73829;53.826;-3.034;2024-02-21T06:15:05;1.60;;;0.60;;
83814;SDS011;73829;53.826;-3.034;2024-02-21T06:17:37;1.40;;;0.50;;
83814;SDS011;73829;53.826;-3.034;2024-02-21T06:22:38;1.20;;;0.50;;
83814;SDS011;73829;53.826;-3.034;2024-02-21T06:25:09;1.30;;;0.50;;
83814;SDS011;73829;53.826;-3.034;2024-02-21T06:27:40;1.30;;;0.50;;
83814;SDS011;73829;53.826;-3.034;2024-02-21T06:30:12;2.20;;;0.60;;
83814;SDS011;73829;53.826;-3.034;2024-02-21T06:32:43;2.40;;;0.60;;
83814;SDS011;73829;53.826;-3.034;2024-02-21T06:35:14;2.00;;;0.70;;
83814;SDS011;73829;53.826;-3.034;2024-02-21T06:37:45;2.50;;;0.70;;
83814;SDS011;73829;53.826;-3.034;2024-02-21T06:40:20;1.40;;;0.60;;
83814;SDS011;73829;53.826;-3.034;2024-02-21T06:42:52;1.90;;;0.60;;
83814;SDS011;73829;53.826;-3.034;2024-02-21T06:45:23;1.50;;;0.50;;
83814;SDS011;73829;53.826;-3.034;2024-02-21T06:47:54;1.60;;;0.50;;
83814;SDS011;73829;53.826;-3.034;2024-02-21T06:50:25;1.20;;;0.40;;
83814;SDS011;73829;53.826;-3.034;2024-02-21T06:52:56;1.40;;;0.40;;
83814;SDS011;73829;53.826;-3.034;2024-02-21T06:55:27;1.90;;;0.60;;
83814;SDS011;73829;53.826;-3.034;2024-02-21T06:57:58;1.70;;;0.60;;
83814;SDS011;73829;53.826;-3.034;2024-02-21T07:00:29;2.00;;;0.70;;
83814;SDS011;73829;53.826;-3.034;2024-02-21T07:03:00;1.90;;;0.60;;
83814;SDS011;73829;53.826;-3.034;2024-02-21T07:05:31;1.60;;;0.50;;
83814;SDS011;73829;53.826;-3.034;2024-02-21T07:08:03;1.20;;;0.50;;
83814;SDS011;73829;53.826;-3.034;2024-02-21T07:10:34;1.70;;;0.70;;
83814;SDS011;73829;53.826;-3.034;2024-02-21T07:13:05;1.80;;;0.50;;
83814;SDS011;73829;53.826;-3.034;2024-02-21T07:18:06;1.80;;;1.00;;
83814;SDS011;73829;53.826;-3.034;2024-02-21T07:20:37;1.70;;;0.70;;
83814;SDS011;73829;53.826;-3.034;2024-02-21T07:23:09;1.50;;;0.50;;
83814;SDS011;73829;53.826;-3.034;2024-02-21T07:25:40;1.70;;;0.60;;
83814;SDS011;73829;53.826;-3.034;2024-02-21T07:28:11;1.40;;;0.40;;
83814;SDS011;73829;53.826;-3.034;2024-02-21T07:30:44;1.40;;;0.50;;
83814;SDS011;73829;53.826;-3.034;2024-02-21T07:33:15;1.40;;;0.60;;
83814;SDS011;73829;53.826;-3.034;2024-02-21T07:35:46;1.20;;;0.70;;
83814;SDS011;73829;53.826;-3.034;2024-02-21T07:40:46;0.90;;;0.40;;
83814;SDS011;73829;53.826;-3.034;2024-02-21T07:43:17;1.30;;;0.60;;
83814;SDS011;73829;53.826;-3.034;2024-02-21T07:45:50;1.50;;;0.50;;
83814;SDS011;73829;53.826;-3.034;2024-02-21T07:48:22;1.60;;;0.60;;
83814;SDS011;73829;53.826;-3.034;2024-02-21T07:50:54;2.50;;;0.70;;
83814;SDS011;73829;53.826;-3.034;2024-02-21T07:53:25;1.40;;;0.50;;
83814;SDS011;73829;53.826;-3.034;2024-02-21T07:55:56;1.70;;;0.60;;
83814;SDS011;73829;53.826;-3.034;2024-02-21T07:58:27;1.30;;;0.30;;
83814;SDS011;73829;53.826;-3.034;2024-02-21T08:03:27;1.60;;;0.40;;
83814;SDS011;73829;53.826;-3.034;2024-02-21T08:05:58;1.50;;;0.50;;
83814;SDS011;73829;53.826;-3.034;2024-02-21T08:08:30;1.10;;;0.50;;
83814;SDS011;73829;53.826;-3.034;2024-02-21T08:11:03;1.20;;;0.50;;
83814;SDS011;73829;53.826;-3.034;2024-02-21T08:13:34;1.80;;;0.40;;
83814;SDS011;73829;53.826;-3.034;2024-02-21T08:16:05;1.20;;;0.60;;
83814;SDS011;73829;53.826;-3.034;2024-02-21T08:18:37;1.50;;;0.50;;
83814;SDS011;73829;53.826;-3.034;2024-02-21T08:23:37;0.70;;;0.30;;
83814;SDS011;73829;53.826;-3.034;2024-02-21T08:26:08;1.00;;;0.30;;
83814;SDS011;73829;53.826;-3.034;2024-02-21T08:28:39;1.40;;;0.50;;
83814;SDS011;73829;53.826;-3.034;2024-02-21T08:31:10;1.10;;;0.40;;
83814;SDS011;73829;53.826;-3.034;2024-02-21T08:33:47;1.50;;;0.50;;
83814;SDS011;73829;53.826;-3.034;2024-02-21T08:36:21;1.60;;;0.60;;
83814;SDS011;73829;53.826;-3.034;2024-02-21T08:38:52;1.50;;;0.60;;
83814;SDS011;73829;53.826;-3.034;2024-02-21T08:41:23;1.50;;;0.60;;
83814;SDS011;73829;53.826;-3.034;2024-02-21T08:43:55;1.60;;;0.60;;
83814;SDS011;73829;53.826;-3.034;2024-02-21T08:46:26;2.40;;;0.60;;
83814;SDS011;73829;53.826;-3.034;2024-02-21T08:48:57;1.00;;;0.40;;
83814;SDS011;73829;53.826;-3.034;2024-02-21T08:51:28;7.00;;;1.90;;
83814;SDS011;73829;53.826;-3.034;2024-02-21T08:53:59;5.60;;;1.00;;
83814;SDS011;73829;53.826;-3.034;2024-02-21T08:56:31;3.60;;;1.00;;
83814;SDS011;73829;53.826;-3.034;2024-02-21T08:59:03;5.30;;;1.20;;
83814;SDS011;73829;53.826;-3.034;2024-02-21T09:01:34;4.00;;;1.10;;
83814;SDS011;73829;53.826;-3.034;2024-02-21T09:04:05;5.00;;;1.10;;
83814;SDS011;73829;53.826;-3.034;2024-02-21T09:06:36;6.10;;;1.30;;
83814;SDS011;73829;53.826;-3.034;2024-02-21T09:09:09;3.30;;;1.00;;
83814;SDS011;73829;53.826;-3.034;2024-02-21T09:11:41;4.80;;;1.10;;
83814;SDS011;73829;53.826;-3.034;2024-02-21T09:14:12;4.10;;;1.10;;
83814;SDS011;73829;53.826;-3.034;2024-02-21T09:16:43;4.80;;;1.00;;
83814;SDS011;73829;53.826;-3.034;2024-02-21T09:19:14;5.30;;;1.00;;
83814;SDS011;73829;53.826;-3.034;2024-02-21T09:21:46;2.70;;;1.00;;
83814;SDS011;73829;53.826;-3.034;2024-02-21T09:24:17;2.10;;;0.90;;
83814;SDS011;73829;53.826;-3.034;2024-02-21T09:26:48;3.80;;;0.80;;
83814;SDS011;73829;53.826;-3.034;2024-02-21T09:29:19;3.70;;;0.90;;
83814;SDS011;73829;53.826;-3.034;2024-02-21T09:31:50;4.30;;;0.90;;
83814;SDS011;73829;53.826;-3.034;2024-02-21T09:34:21;4.40;;;0.90;;
83814;SDS011;73829;53.826;-3.034;2024-02-21T09:36:52;3.20;;;0.90;;
83814;SDS011;73829;53.826;-3.034;2024-02-21T09:39:23;3.30;;;0.80;;
83814;SDS011;73829;53.826;-3.034;2024-02-21T09:41:57;2.80;;;0.80;;
83814;SDS011;73829;53.826;-3.034;2024-02-21T09:44:33;5.60;;;1.40;;
83814;SDS011;73829;53.826;-3.034;2024-02-21T09:47:09;4.90;;;1.10;;
83814;SDS011;73829;53.826;-3.034;2024-02-21T09:49:46;5.80;;;1.30;;
83814;SDS011;73829;53.826;-3.034;2024-02-21T09:52:18;3.60;;;1.20;;
83814;SDS011;73829;53.826;-3.034;2024-02-21T09:54:50;4.60;;;1.20;;
83814;SDS011;73829;53.826;-3.034;2024-02-21T09:57:24;5.10;;;1.00;;
83814;SDS011;73829;53.826;-3.034;2024-02-21T09:59:56;4.10;;;1.20;;
83814;SDS011;73829;53.826;-3.034;2024-02-21T10:02:35;3.00;;;1.00;;
83814;SDS011;73829;53.826;-3.034;2024-02-21T10:05:08;4.10;;;1.50;;
83814;SDS011;73829;53.826;-3.034;2024-02-21T10:07:39;5.50;;;1.30;;
83814;SDS011;73829;53.826;-3.034;2024-02-21T10:10:10;5.20;;;1.20;;
83814;SDS011;73829;53.826;-3.034;2024-02-21T10:12:49;3.90;;;1.40;;
83814;SDS011;73829;53.826;-3.034;2024-02-21T10:15:22;4.00;;;1.10;;
83814;SDS011;73829;53.826;-3.034;2024-02-21T10:17:59;2.90;;;1.20;;
83814;SDS011;73829;53.826;-3.034;2024-02-21T10:20:31;4.00;;;1.20;;
83814;SDS011;73829;53.826;-3.034;2024-02-21T10:23:03;6.00;;;1.20;;
83814;SDS011;73829;53.826;-3.034;2024-02-21T10:25:37;3.40;;;1.10;;
83814;SDS011;73829;53.826;-3.034;2024-02-21T10:28:13;5.70;;;1.00;;
83814;SDS011;73829;53.826;-3.034;2024-02-21T10:30:50;4.10;;;0.90;;
83814;SDS011;73829;53.826;-3.034;2024-02-21T10:33:22;4.00;;;1.20;;
83814;SDS011;73829;53.826;-3.034;2024-02-21T10:36:05;3.10;;;0.90;;
83814;SDS011;73829;53.826;-3.034;2024-02-21T10:38:38;2.70;;;0.90;;
83814;SDS011;73829;53.826;-3.034;2024-02-21T10:41:09;4.10;;;0.90;;
83814;SDS011;73829;53.826;-3.034;2024-02-21T10:43:46;3.60;;;1.10;;
83814;SDS011;73829;53.826;-3.034;2024-02-21T10:46:21;5.10;;;1.20;;
83814;SDS011;73829;53.826;-3.034;2024-02-21T10:48:57;5.00;;;0.70;;
83814;SDS011;73829;53.826;-3.034;2024-02-21T10:51:36;3.40;;;0.80;;
83814;SDS011;73829;53.826;-3.034;2024-02-21T10:54:16;4.80;;;1.10;;
83814;SDS011;73829;53.826;-3.034;2024-02-21T10:56:59;2.40;;;0.80;;
83814;SDS011;73829;53.826;-3.034;2024-02-21T10:59:32;2.80;;;1.00;;
83814;SDS011;73829;53.826;-3.034;2024-02-21T11:02:04;2.50;;;0.80;;
83814;SDS011;73829;53.826;-3.034;2024-02-21T11:04:35;2.40;;;0.70;;
83814;SDS011;73829;53.826;-3.034;2024-02-21T11:07:08;2.10;;;0.60;;
83814;SDS011;73829;53.826;-3.034;2024-02-21T11:09:39;3.80;;;1.00;;
83814;SDS011;73829;53.826;-3.034;2024-02-21T11:12:21;3.50;;;0.70;;
83814;SDS011;73829;53.826;-3.034;2024-02-21T11:14:54;1.90;;;0.80;;
83814;SDS011;73829;53.826;-3.034;2024-02-21T11:17:34;3.40;;;0.80;;
83814;SDS011;73829;53.826;-3.034;2024-02-21T11:20:14;2.30;;;0.90;;
83814;SDS011;73829;53.826;-3.034;2024-02-21T11:22:47;3.60;;;1.00;;
83814;SDS011;73829;53.826;-3.034;2024-02-21T11:25:22;2.20;;;0.70;;
83814;SDS011;73829;53.826;-3.034;2024-02-21T11:28:00;2.10;;;0.60;;
83814;SDS011;73829;53.826;-3.034;2024-02-21T11:30:33;2.80;;;0.60;;
83814;SDS011;73829;53.826;-3.034;2024-02-21T11:33:07;2.50;;;0.70;;
83814;SDS011;73829;53.826;-3.034;2024-02-21T11:35:38;2.00;;;0.70;;
83814;SDS011;73829;53.826;-3.034;2024-02-21T11:38:09;2.40;;;0.70;;
83814;SDS011;73829;53.826;-3.034;2024-02-21T11:40:44;2.20;;;0.80;;
83814;SDS011;73829;53.826;-3.034;2024-02-21T11:43:16;3.50;;;0.90;;
83814;SDS011;73829;53.826;-3.034;2024-02-21T11:45:47;1.40;;;0.50;;
83814;SDS011;73829;53.826;-3.034;2024-02-21T11:50:53;1.80;;;0.50;;
83814;SDS011;73829;53.826;-3.034;2024-02-21T11:53:25;2.30;;;0.50;;
83814;SDS011;73829;53.826;-3.034;2024-02-21T11:55:58;2.70;;;0.60;;
83814;SDS011;73829;53.826;-3.034;2024-02-21T11:58:29;3.30;;;0.70;;
83814;SDS011;73829;53.826;-3.034;2024-02-21T12:01:02;2.10;;;0.50;;
83814;SDS011;73829;53.826;-3.034;2024-02-21T12:03:35;3.00;;;0.70;;
83814;SDS011;73829;53.826;-3.034;2024-02-21T12:06:07;2.50;;;0.60;;
83814;SDS011;73829;53.826;-3.034;2024-02-21T12:08:42;2.50;;;0.60;;
83814;SDS011;73829;53.826;-3.034;2024-02-21T12:11:20;1.90;;;0.60;;
83814;SDS011;73829;53.826;-3.034;2024-02-21T12:14:01;1.80;;;0.60;;
83814;SDS011;73829;53.826;-3.034;2024-02-21T12:16:32;2.40;;;0.60;;
83814;SDS011;73829;53.826;-3.034;2024-02-21T12:19:05;1.50;;;0.60;;
83814;SDS011;73829;53.826;-3.034;2024-02-21T12:21:37;1.10;;;0.50;;
83814;SDS011;73829;53.826;-3.034;2024-02-21T12:24:15;2.90;;;0.60;;
83814;SDS011;73829;53.826;-3.034;2024-02-21T12:26:49;1.80;;;0.60;;
83814;SDS011;73829;53.826;-3.034;2024-02-21T12:29:21;1.80;;;0.50;;
83814;SDS011;73829;53.826;-3.034;2024-02-21T12:31:53;1.60;;;0.60;;
83814;SDS011;73829;53.826;-3.034;2024-02-21T12:34:25;1.00;;;0.50;;
83814;SDS011;73829;53.826;-3.034;2024-02-21T12:37:01;2.60;;;0.60;;
83814;SDS011;73829;53.826;-3.034;2024-02-21T12:39:32;1.10;;;0.50;;
83814;SDS011;73829;53.826;-3.034;2024-02-21T12:42:04;3.00;;;0.80;;
83814;SDS011;73829;53.826;-3.034;2024-02-21T12:44:36;2.20;;;0.50;;
83814;SDS011;73829;53.826;-3.034;2024-02-21T12:47:07;2.90;;;0.80;;
83814;SDS011;73829;53.826;-3.034;2024-02-21T12:49:39;2.10;;;0.70;;
83814;SDS011;73829;53.826;-3.034;2024-02-21T12:52:10;3.70;;;0.70;;
83814;SDS011;73829;53.826;-3.034;2024-02-21T12:54:43;1.80;;;0.50;;
83814;SDS011;73829;53.826;-3.034;2024-02-21T12:57:15;2.80;;;0.60;;
83814;SDS011;73829;53.826;-3.034;2024-02-21T12:59:46;1.40;;;0.50;;
83814;SDS011;73829;53.826;-3.034;2024-02-21T13:02:19;2.70;;;1.00;;
83814;SDS011;73829;53.826;-3.034;2024-02-21T13:04:50;3.90;;;0.50;;
83814;SDS011;73829;53.826;-3.034;2024-02-21T13:07:21;2.30;;;0.60;;
83814;SDS011;73829;53.826;-3.034;2024-02-21T13:09:52;2.20;;;0.60;;
83814;SDS011;73829;53.826;-3.034;2024-02-21T13:12:23;2.60;;;0.60;;
83814;SDS011;73829;53.826;-3.034;2024-02-21T13:14:55;1.50;;;0.50;;
83814;SDS011;73829;53.826;-3.034;2024-02-21T13:17:26;3.10;;;0.60;;
83814;SDS011;73829;53.826;-3.034;2024-02-21T13:19:59;2.30;;;0.50;;
83814;SDS011;73829;53.826;-3.034;2024-02-21T13:22:31;2.20;;;0.40;;
83814;SDS011;73829;53.826;-3.034;2024-02-21T13:25:02;3.20;;;0.70;;
83814;SDS011;73829;53.826;-3.034;2024-02-21T13:27:35;3.60;;;1.00;;
83814;SDS011;73829;53.826;-3.034;2024-02-21T13:30:07;2.70;;;0.80;;
83814;SDS011;73829;53.826;-3.034;2024-02-21T13:32:39;2.20;;;0.60;;
83814;SDS011;73829;53.826;-3.034;2024-02-21T13:35:10;3.20;;;0.60;;
83814;SDS011;73829;53.826;-3.034;2024-02-21T13:37:42;3.40;;;0.70;;
83814;SDS011;73829;53.826;-3.034;2024-02-21T13:40:13;4.00;;;0.70;;
83814;SDS011;73829;53.826;-3.034;2024-02-21T13:42:44;3.60;;;0.80;;
83814;SDS011;73829;53.826;-3.034;2024-02-21T13:45:15;3.90;;;0.70;;
83814;SDS011;73829;53.826;-3.034;2024-02-21T13:47:47;3.10;;;0.70;;
83814;SDS011;73829;53.826;-3.034;2024-02-21T13:50:18;3.60;;;0.90;;
83814;SDS011;73829;53.826;-3.034;2024-02-21T13:52:52;3.40;;;0.80;;
83814;SDS011;73829;53.826;-3.034;2024-02-21T13:55:24;6.60;;;1.00;;
83814;SDS011;73829;53.826;-3.034;2024-02-21T13:57:55;5.50;;;1.20;;
83814;SDS011;73829;53.826;-3.034;2024-02-21T14:00:26;3.10;;;0.80;;
83814;SDS011;73829;53.826;-3.034;2024-02-21T14:02:57;3.80;;;0.80;;
83814;SDS011;73829;53.826;-3.034;2024-02-21T14:05:29;4.00;;;0.80;;
83814;SDS011;73829;53.826;-3.034;2024-02-21T14:08:00;7.60;;;1.80;;
83814;SDS011;73829;53.826;-3.034;2024-02-21T14:10:33;5.50;;;0.90;;
83814;SDS011;73829;53.826;-3.034;2024-02-21T14:13:05;6.70;;;1.90;;
83814;SDS011;73829;53.826;-3.034;2024-02-21T14:15:36;8.70;;;1.10;;
83814;SDS011;73829;53.826;-3.034;2024-02-21T14:18:08;6.10;;;1.20;;
83814;SDS011;73829;53.826;-3.034;2024-02-21T14:20:40;7.30;;;1.40;;
83814;SDS011;73829;53.826;-3.034;2024-02-21T14:23:12;8.00;;;1.30;;
83814;SDS011;73829;53.826;-3.034;2024-02-21T14:25:43;5.80;;;1.00;;
83814;SDS011;73829;53.826;-3.034;2024-02-21T14:28:14;8.60;;;1.40;;
83814;SDS011;73829;53.826;-3.034;2024-02-21T14:30:45;7.60;;;1.30;;
83814;SDS011;73829;53.826;-3.034;2024-02-21T14:33:22;9.60;;;1.50;;
83814;SDS011;73829;53.826;-3.034;2024-02-21T14:35:54;6.90;;;1.30;;
83814;SDS011;73829;53.826;-3.034;2024-02-21T14:38:25;7.10;;;1.00;;
83814;SDS011;73829;53.826;-3.034;2024-02-21T14:40:56;8.40;;;1.40;;
83814;SDS011;73829;53.826;-3.034;2024-02-21T14:43:27;5.60;;;0.80;;
83814;SDS011;73829;53.826;-3.034;2024-02-21T14:45:59;7.50;;;1.20;;
83814;SDS011;73829;53.826;-3.034;2024-02-21T14:48:32;7.10;;;1.30;;
83814;SDS011;73829;53.826;-3.034;2024-02-21T14:51:04;9.00;;;1.80;;
83814;SDS011;73829;53.826;-3.034;2024-02-21T14:53:35;8.20;;;1.50;;
83814;SDS011;73829;53.826;-3.034;2024-02-21T14:56:12;6.60;;;1.50;;
83814;SDS011;73829;53.826;-3.034;2024-02-21T14:58:43;11.40;;;1.80;;
83814;SDS011;73829;53.826;-3.034;2024-02-21T15:01:16;9.00;;;1.70;;
83814;SDS011;73829;53.826;-3.034;2024-02-21T15:03:47;10.00;;;1.40;;
83814;SDS011;73829;53.826;-3.034;2024-02-21T15:06:19;7.30;;;1.30;;
83814;SDS011;73829;53.826;-3.034;2024-02-21T15:08:50;8.60;;;1.30;;
83814;SDS011;73829;53.826;-3.034;2024-02-21T15:11:21;8.00;;;1.70;;
83814;SDS011;73829;53.826;-3.034;2024-02-21T15:13:52;7.70;;;1.50;;
83814;SDS011;73829;53.826;-3.034;2024-02-21T15:16:23;7.00;;;1.20;;
83814;SDS011;73829;53.826;-3.034;2024-02-21T15:18:55;5.70;;;1.10;;
83814;SDS011;73829;53.826;-3.034;2024-02-21T15:21:26;5.40;;;1.30;;
83814;SDS011;73829;53.826;-3.034;2024-02-21T15:23:58;7.20;;;1.40;;
83814;SDS011;73829;53.826;-3.034;2024-02-21T15:26:31;8.30;;;1.50;;
83814;SDS011;73829;53.826;-3.034;2024-02-21T15:29:02;7.10;;;1.40;;
83814;SDS011;73829;53.826;-3.034;2024-02-21T15:31:33;6.70;;;1.50;;
83814;SDS011;73829;53.826;-3.034;2024-02-21T15:34:05;9.10;;;1.50;;
83814;SDS011;73829;53.826;-3.034;2024-02-21T15:36:36;7.20;;;1.40;;
83814;SDS011;73829;53.826;-3.034;2024-02-21T15:39:07;8.20;;;1.40;;
83814;SDS011;73829;53.826;-3.034;2024-02-21T15:41:39;9.50;;;1.50;;
83814;SDS011;73829;53.826;-3.034;2024-02-21T15:44:10;7.20;;;1.30;;
83814;SDS011;73829;53.826;-3.034;2024-02-21T15:46:41;10.60;;;1.80;;
83814;SDS011;73829;53.826;-3.034;2024-02-21T15:49:13;9.20;;;1.40;;
83814;SDS011;73829;53.826;-3.034;2024-02-21T15:51:44;9.10;;;1.50;;
83814;SDS011;73829;53.826;-3.034;2024-02-21T15:54:15;8.20;;;1.30;;
83814;SDS011;73829;53.826;-3.034;2024-02-21T15:56:46;5.30;;;1.10;;
83814;SDS011;73829;53.826;-3.034;2024-02-21T15:59:18;11.20;;;1.90;;
83814;SDS011;73829;53.826;-3.034;2024-02-21T16:01:49;8.90;;;1.20;;